Time;durP1;ratioP1;P1;durP2;ratioP2;P2;SDS_P1;SDS_P2;PMS_P1;PMS_P2;Temp;Humidity;BMP_temperature;BMP_pressure;BME280_temperature;BME280_humidity;BME280_pressure;Samples;Min_cycle;Max_cycle;Signal;HPM_P1;HPM_P2
2021/03/09 00:00:08;;;;;;;;;;;17.70;55.10;;;;;;4929098;28;19934;-82
2021/03/09 00:02:35;;;;;;;;;;;17.70;55.00;;;;;;4933163;28;20034;-82
2021/03/09 00:05:01;;;;;;;;;;;17.70;55.10;;;;;;4928976;28;19925;-81
2021/03/09 00:07:27;;;;;;;;;;;17.70;55.10;;;;;;4933560;28;19934;-81
2021/03/09 00:09:54;;;;;;;;;;;17.60;55.10;;;;;;4928265;28;20644;-81
2021/03/09 00:12:22;;;;;;;;;;;17.60;55.00;;;;;;4931918;28;19927;-82
2021/03/09 00:14:51;;;;;;;;;;;17.60;55.00;;;;;;4925351;28;19994;-82
2021/03/09 00:17:29;;;;;;;;;;;17.60;55.10;;;;;;4919343;28;20545;-82
2021/03/09 00:19:56;;;;;;;;;;;17.60;55.10;;;;;;4928478;28;21570;-82
2021/03/09 00:22:22;;;;;;;;;;;17.60;54.80;;;;;;4932197;28;19933;-82
2021/03/09 00:24:48;;;;;;;;;;;17.60;54.90;;;;;;4930209;28;20303;-82
2021/03/09 00:27:14;;;;;;;;;;;17.60;55.00;;;;;;4929235;28;19934;-82
2021/03/09 00:29:41;;;;;;;;;;;17.60;55.10;;;;;;4933677;28;19982;-82
2021/03/09 00:32:08;;;;;;;;;;;17.60;55.00;;;;;;4932163;28;19966;-83
2021/03/09 00:34:35;;;;;;;;;;;17.60;55.00;;;;;;4933744;28;19945;-83
2021/03/09 00:37:02;;;;;;;;;;;17.50;54.90;;;;;;4925021;28;19934;-83
2021/03/09 00:39:28;;;;;;;;;;;17.60;55.00;;;;;;4936134;28;19931;-83
2021/03/09 00:41:54;;;;;;;;;;;17.50;55.00;;;;;;4927112;28;19933;-82
2021/03/09 00:44:20;;;;;;;;;;;17.60;55.10;;;;;;4932167;28;20406;-82
2021/03/09 00:46:50;;;;;;;;;;;17.50;54.90;;;;;;4927164;28;19926;-83
2021/03/09 00:49:17;;;;;;;;;;;17.60;55.00;;;;;;4935534;28;19945;-83
2021/03/09 00:51:43;;;;;;;;;;;17.50;54.90;;;;;;4926805;28;19941;-83
2021/03/09 00:54:09;;;;;;;;;;;17.60;55.00;;;;;;4933779;28;19927;-83
2021/03/09 00:56:35;;;;;;;;;;;17.60;54.90;;;;;;4917207;28;19934;-83
2021/03/09 00:59:02;;;;;;;;;;;17.50;54.80;;;;;;4913164;29;19935;-83
2021/03/09 01:01:28;;;;;;;;;;;17.50;55.00;;;;;;4907512;29;19927;-83
2021/03/09 01:03:54;;;;;;;;;;;17.50;54.80;;;;;;4914670;29;19954;-81
2021/03/09 01:06:20;;;;;;;;;;;17.50;54.80;;;;;;4908596;29;20388;-82
2021/03/09 01:08:47;;;;;;;;;;;17.50;54.90;;;;;;4914224;29;19950;-83
2021/03/09 01:11:13;;;;;;;;;;;17.50;54.90;;;;;;4907825;29;19922;-83
2021/03/09 01:13:39;;;;;;;;;;;17.50;54.80;;;;;;4913315;29;19927;-83
2021/03/09 01:16:05;;;;;;;;;;;17.50;54.80;;;;;;4911820;29;19927;-82
2021/03/09 01:18:37;;;;;;;;;;;17.50;54.80;;;;;;4908226;29;19927;-82
2021/03/09 01:21:03;;;;;;;;;;;17.50;54.80;;;;;;4912007;29;19981;-82
2021/03/09 01:23:31;;;;;;;;;;;17.50;54.90;;;;;;4908507;29;20456;-82
2021/03/09 01:25:57;;;;;;;;;;;17.50;54.80;;;;;;4915878;29;19957;-82
2021/03/09 01:28:24;;;;;;;;;;;17.50;54.80;;;;;;4906853;29;19927;-82
2021/03/09 01:30:50;;;;;;;;;;;17.50;54.80;;;;;;4913990;29;20709;-82
2021/03/09 01:33:16;;;;;;;;;;;17.50;54.80;;;;;;4906217;29;20406;-82
2021/03/09 01:35:42;;;;;;;;;;;17.50;54.80;;;;;;4915407;29;19927;-82
2021/03/09 01:38:09;;;;;;;;;;;17.50;54.70;;;;;;4907981;29;19935;-82
2021/03/09 01:40:35;;;;;;;;;;;17.40;54.80;;;;;;4914095;29;19945;-82
2021/03/09 01:43:02;;;;;;;;;;;17.40;54.70;;;;;;4906979;29;19945;-82
2021/03/09 01:45:28;;;;;;;;;;;17.50;54.70;;;;;;4915025;29;19931;-82
2021/03/09 01:47:58;;;;;;;;;;;17.40;54.70;;;;;;4909090;29;20669;-82
2021/03/09 01:50:24;;;;;;;;;;;17.40;54.70;;;;;;4912988;29;19974;-83
2021/03/09 01:52:53;;;;;;;;;;;17.40;54.80;;;;;;4909100;29;20610;-83
2021/03/09 01:55:20;;;;;;;;;;;17.40;54.70;;;;;;4912433;29;20271;-82
2021/03/09 01:57:47;;;;;;;;;;;17.40;54.70;;;;;;4931637;28;19927;-82
2021/03/09 02:00:18;;;;;;;;;;;17.50;54.80;;;;;;4924973;28;19926;-83
2021/03/09 02:02:44;;;;;;;;;;;17.40;54.70;;;;;;4929945;28;19935;-83
2021/03/09 02:05:12;;;;;;;;;;;17.40;54.70;;;;;;4925852;28;19933;-83
2021/03/09 02:07:38;;;;;;;;;;;17.40;54.60;;;;;;4931206;28;19936;-83
2021/03/09 02:10:08;;;;;;;;;;;17.30;54.60;;;;;;4925963;28;19927;-83
2021/03/09 02:12:43;;;;;;;;;;;17.40;54.70;;;;;;4931135;28;19934;-82
2021/03/09 02:15:16;;;;;;;;;;;17.40;54.70;;;;;;4926317;28;19949;-82
2021/03/09 02:17:48;;;;;;;;;;;17.40;54.80;;;;;;4932993;29;19938;-83
2021/03/09 02:20:34;;;;;;;;;;;17.30;54.70;;;;;;4924359;28;19939;-82
2021/03/09 02:23:18;;;;;;;;;;;17.30;54.60;;;;;;4920405;28;20500;-82
2021/03/09 02:25:59;;;;;;;;;;;17.40;54.60;;;;;;4926750;28;19935;-83
2021/03/09 02:28:38;;;;;;;;;;;17.40;54.60;;;;;;4932130;28;23098;-82
2021/03/09 02:31:06;;;;;;;;;;;17.30;55.20;;;;;;4927378;28;19954;-83
2021/03/09 02:33:34;;;;;;;;;;;17.40;54.60;;;;;;4930761;28;19938;-83
2021/03/09 02:36:06;;;;;;;;;;;17.30;54.60;;;;;;4924496;28;20295;-83
2021/03/09 02:38:34;;;;;;;;;;;17.30;54.60;;;;;;4941134;28;19934;-82
2021/03/09 02:41:02;;;;;;;;;;;17.30;54.50;;;;;;4926077;28;19926;-82
2021/03/09 02:43:29;;;;;;;;;;;17.30;54.40;;;;;;4931848;28;19919;-83
2021/03/09 02:45:56;;;;;;;;;;;17.30;54.50;;;;;;4925848;28;19942;-81
2021/03/09 02:48:25;;;;;;;;;;;17.30;54.50;;;;;;4930358;28;19926;-82
2021/03/09 02:50:53;;;;;;;;;;;17.30;54.50;;;;;;4925659;28;21737;-82
2021/03/09 02:53:19;;;;;;;;;;;17.30;54.40;;;;;;4935583;28;20295;-82
2021/03/09 02:55:46;;;;;;;;;;;17.30;54.40;;;;;;4929677;28;20014;-82
2021/03/09 02:58:13;;;;;;;;;;;17.30;54.40;;;;;;4937745;28;19927;-82
2021/03/09 03:00:40;;;;;;;;;;;17.30;54.40;;;;;;4930004;28;19927;-82
2021/03/09 03:03:08;;;;;;;;;;;17.30;54.40;;;;;;4935658;28;19926;-81
2021/03/09 03:05:35;;;;;;;;;;;17.30;54.40;;;;;;4934868;28;19942;-82
2021/03/09 03:08:08;;;;;;;;;;;17.20;54.40;;;;;;4926870;28;19927;-81
2021/03/09 03:10:42;;;;;;;;;;;17.30;54.40;;;;;;4947394;28;19935;-82
2021/03/09 03:13:10;;;;;;;;;;;17.30;54.40;;;;;;4927931;28;19931;-82
2021/03/09 03:15:37;;;;;;;;;;;17.30;54.40;;;;;;4932144;28;19927;-83
2021/03/09 03:18:05;;;;;;;;;;;17.20;54.30;;;;;;4928887;28;19927;-82
2021/03/09 03:20:32;;;;;;;;;;;17.20;54.40;;;;;;4932946;28;19974;-82
2021/03/09 03:22:59;;;;;;;;;;;17.20;54.40;;;;;;4930275;28;20592;-83
2021/03/09 03:25:26;;;;;;;;;;;17.20;54.30;;;;;;4933944;28;19930;-82
2021/03/09 03:27:52;;;;;;;;;;;17.20;54.30;;;;;;4933183;28;19962;-83
2021/03/09 03:30:19;;;;;;;;;;;17.30;54.40;;;;;;4934100;29;19929;-83
2021/03/09 03:32:46;;;;;;;;;;;17.30;54.30;;;;;;4933045;28;19986;-83
2021/03/09 03:35:13;;;;;;;;;;;17.20;54.30;;;;;;4934478;28;19927;-84
2021/03/09 03:37:40;;;;;;;;;;;17.20;54.30;;;;;;4930535;28;19935;-83
2021/03/09 03:40:08;;;;;;;;;;;17.20;54.30;;;;;;4935832;28;19934;-83
2021/03/09 03:42:34;;;;;;;;;;;17.20;54.30;;;;;;4927476;28;19934;-83
2021/03/09 03:45:00;;;;;;;;;;;17.20;54.30;;;;;;4933654;28;20287;-82
2021/03/09 03:47:26;;;;;;;;;;;17.20;54.30;;;;;;4936400;28;19927;-82
2021/03/09 03:50:10;;;;;;;;;;;17.20;54.30;;;;;;4932032;28;19934;-82
2021/03/09 03:52:41;;;;;;;;;;;17.20;54.30;;;;;;4933459;28;20014;-82
2021/03/09 03:55:21;;;;;;;;;;;17.20;54.20;;;;;;4929295;28;19934;-83
2021/03/09 03:57:48;;;;;;;;;;;17.20;54.20;;;;;;4935688;28;19938;-83
2021/03/09 04:00:16;;;;;;;;;;;17.20;54.20;;;;;;4928494;28;20404;-83
2021/03/09 04:02:44;;;;;;;;;;;17.20;54.20;;;;;;4946507;28;19934;-83
2021/03/09 04:05:11;;;;;;;;;;;17.20;54.20;;;;;;4928705;28;20277;-83
2021/03/09 04:07:38;;;;;;;;;;;17.20;54.20;;;;;;4932138;28;19950;-83
2021/03/09 04:10:15;;;;;;;;;;;17.20;54.20;;;;;;4929000;28;19946;-83
2021/03/09 04:12:42;;;;;;;;;;;17.20;54.30;;;;;;4932218;28;20273;-81
2021/03/09 04:15:09;;;;;;;;;;;17.10;54.20;;;;;;4928540;28;20518;-82
2021/03/09 04:17:37;;;;;;;;;;;17.20;54.20;;;;;;4932946;28;19931;-82
2021/03/09 04:20:04;;;;;;;;;;;17.10;54.10;;;;;;4930121;28;19939;-81
2021/03/09 04:22:31;;;;;;;;;;;17.20;54.20;;;;;;4933524;28;19934;-82
2021/03/09 04:24:57;;;;;;;;;;;17.20;54.20;;;;;;4929192;28;19946;-82
2021/03/09 04:27:24;;;;;;;;;;;17.10;54.10;;;;;;4934355;28;19943;-81
2021/03/09 04:29:54;;;;;;;;;;;17.20;54.70;;;;;;4931072;28;20168;-82
2021/03/09 04:32:22;;;;;;;;;;;17.10;54.10;;;;;;4931639;28;20383;-82
2021/03/09 04:34:49;;;;;;;;;;;17.10;54.10;;;;;;4931455;28;19995;-82
2021/03/09 04:37:35;;;;;;;;;;;17.10;54.10;;;;;;4920898;28;19935;-81
2021/03/09 04:40:02;;;;;;;;;;;17.10;54.00;;;;;;4931152;28;20016;-82
2021/03/09 04:42:29;;;;;;;;;;;17.10;54.10;;;;;;4930339;28;20331;-82
2021/03/09 04:44:55;;;;;;;;;;;17.10;54.10;;;;;;4932254;28;20335;-81
2021/03/09 04:47:21;;;;;;;;;;;17.10;54.10;;;;;;4928533;28;19927;-81
2021/03/09 04:49:53;;;;;;;;;;;17.10;54.10;;;;;;4932219;28;19986;-82
2021/03/09 04:52:19;;;;;;;;;;;17.10;54.00;;;;;;4930189;28;19985;-82
2021/03/09 04:54:48;;;;;;;;;;;17.10;54.10;;;;;;4932301;28;19971;-82
2021/03/09 04:57:14;;;;;;;;;;;17.10;54.10;;;;;;4929747;28;19934;-82
2021/03/09 04:59:41;;;;;;;;;;;17.10;54.00;;;;;;4932106;28;19934;-82
2021/03/09 05:02:08;;;;;;;;;;;17.10;54.00;;;;;;4931737;28;19933;-82
2021/03/09 05:04:35;;;;;;;;;;;17.10;53.90;;;;;;4932357;28;19937;-82
2021/03/09 05:07:01;;;;;;;;;;;17.10;53.90;;;;;;4929231;28;19934;-82
2021/03/09 05:09:27;;;;;;;;;;;17.10;53.90;;;;;;4930050;28;19930;-82
2021/03/09 05:11:53;;;;;;;;;;;17.10;53.90;;;;;;4932722;28;20026;-82
2021/03/09 05:14:19;;;;;;;;;;;17.00;53.80;;;;;;4929135;28;19949;-82
2021/03/09 05:16:46;;;;;;;;;;;17.10;53.90;;;;;;4935396;28;19926;-82
2021/03/09 05:19:12;;;;;;;;;;;17.10;53.80;;;;;;4927476;28;19989;-82
2021/03/09 05:21:38;;;;;;;;;;;17.10;53.80;;;;;;4933951;28;19935;-83
2021/03/09 05:24:05;;;;;;;;;;;17.10;53.80;;;;;;4926971;28;20478;-81
2021/03/09 05:26:31;;;;;;;;;;;17.00;53.70;;;;;;4932055;28;19962;-82
2021/03/09 05:28:59;;;;;;;;;;;17.00;53.60;;;;;;4928155;28;19938;-82
2021/03/09 05:31:25;;;;;;;;;;;17.00;53.80;;;;;;4931879;28;19927;-81
2021/03/09 05:33:51;;;;;;;;;;;17.00;53.70;;;;;;4927275;28;19927;-82
2021/03/09 05:36:17;;;;;;;;;;;17.00;53.70;;;;;;4931849;28;19915;-82
2021/03/09 05:38:44;;;;;;;;;;;17.00;53.80;;;;;;4925409;28;19934;-83
2021/03/09 05:41:10;;;;;;;;;;;17.00;53.70;;;;;;4931682;28;20359;-82
2021/03/09 05:43:36;;;;;;;;;;;17.00;53.60;;;;;;4926279;28;19927;-83
2021/03/09 05:46:02;;;;;;;;;;;17.00;53.60;;;;;;4928272;28;20037;-84
2021/03/09 05:48:29;;;;;;;;;;;17.00;53.60;;;;;;4930163;28;19994;-83
2021/03/09 05:50:55;;;;;;;;;;;17.00;53.70;;;;;;4930200;28;20470;-83
2021/03/09 05:53:22;;;;;;;;;;;17.00;53.60;;;;;;4930822;29;19943;-83
2021/03/09 05:55:48;;;;;;;;;;;17.00;53.60;;;;;;4928305;28;19955;-83
2021/03/09 05:58:16;;;;;;;;;;;17.00;53.60;;;;;;4931268;28;20544;-83
2021/03/09 06:00:42;;;;;;;;;;;17.00;53.50;;;;;;4929198;28;19927;-85
2021/03/09 06:03:08;;;;;;;;;;;17.00;53.50;;;;;;4931987;28;19927;-81
2021/03/09 06:05:34;;;;;;;;;;;17.10;53.50;;;;;;4925831;28;20232;-83
2021/03/09 06:08:01;;;;;;;;;;;17.00;53.40;;;;;;4930665;28;19934;-83
2021/03/09 06:10:33;;;;;;;;;;;17.00;53.30;;;;;;4928558;28;19934;-82
2021/03/09 06:13:31;;;;;;;;;;;17.00;53.40;;;;;;4934948;28;20414;-88
2021/03/09 06:15:57;;;;;;;;;;;17.00;53.40;;;;;;4947640;28;20150;-83
2021/03/09 06:18:25;;;;;;;;;;;17.00;53.30;;;;;;4931041;28;20554;-85
2021/03/09 06:21:23;;;;;;;;;;;17.00;53.30;;;;;;4928785;28;20290;-85
2021/03/09 06:23:50;;;;;;;;;;;17.00;53.40;;;;;;4904684;28;20364;-84
2021/03/09 06:26:35;;;;;;;;;;;17.00;53.40;;;;;;4929460;28;20364;-84
2021/03/09 06:29:09;;;;;;;;;;;16.90;53.40;;;;;;4917533;28;20306;-83
2021/03/09 06:31:35;;;;;;;;;;;17.00;54.00;;;;;;4933577;28;19934;-83
2021/03/09 06:34:21;;;;;;;;;;;17.00;53.40;;;;;;4930269;28;20398;-83
2021/03/09 06:37:08;;;;;;;;;;;17.00;53.30;;;;;;4929546;28;20279;-82
2021/03/09 06:39:42;;;;;;;;;;;17.00;53.30;;;;;;4917633;28;21307;-83
2021/03/09 06:42:09;;;;;;;;;;;17.00;54.00;;;;;;4924532;28;19958;-83
2021/03/09 06:44:36;;;;;;;;;;;17.00;53.50;;;;;;4929897;28;19985;-85
2021/03/09 06:47:02;;;;;;;;;;;16.90;53.40;;;;;;4925503;28;19942;-85
2021/03/09 06:49:47;;;;;;;;;;;17.00;53.50;;;;;;4930492;28;20065;-85
2021/03/09 06:52:23;;;;;;;;;;;17.00;53.50;;;;;;4923889;28;20452;-85
2021/03/09 06:54:51;;;;;;;;;;;17.00;54.10;;;;;;4930250;28;19931;-87
2021/03/09 06:57:17;;;;;;;;;;;16.90;53.30;;;;;;4925142;29;19935;-86
2021/03/09 06:59:45;;;;;;;;;;;16.90;53.30;;;;;;4929282;29;19926;-86
2021/03/09 07:02:12;;;;;;;;;;;16.90;53.20;;;;;;4926922;28;19950;-85
2021/03/09 07:04:40;;;;;;;;;;;16.90;53.20;;;;;;4928287;28;20373;-86
2021/03/09 07:07:08;;;;;;;;;;;16.90;53.10;;;;;;4927326;28;19934;-86
2021/03/09 07:09:37;;;;;;;;;;;16.90;53.10;;;;;;4928920;28;20073;-86
2021/03/09 07:12:03;;;;;;;;;;;16.90;53.10;;;;;;4939027;28;20008;-82
2021/03/09 07:14:31;;;;;;;;;;;17.00;53.10;;;;;;4931178;28;19934;-82
2021/03/09 07:16:59;;;;;;;;;;;16.90;53.10;;;;;;4942811;28;19927;-82
2021/03/09 07:19:28;;;;;;;;;;;17.00;53.10;;;;;;4924198;28;20387;-82
2021/03/09 07:21:55;;;;;;;;;;;16.90;52.90;;;;;;4932161;28;20303;-82
2021/03/09 07:24:21;;;;;;;;;;;16.90;53.10;;;;;;4923400;28;20022;-83
2021/03/09 07:26:51;;;;;;;;;;;16.90;53.00;;;;;;4932703;28;19915;-84
2021/03/09 07:29:18;;;;;;;;;;;16.90;53.00;;;;;;4925545;28;19933;-83
2021/03/09 07:31:47;;;;;;;;;;;16.90;52.90;;;;;;4923268;28;19934;-83
2021/03/09 07:34:14;;;;;;;;;;;16.90;52.90;;;;;;4932661;28;20402;-82
2021/03/09 07:36:41;;;;;;;;;;;16.90;52.90;;;;;;4931093;28;19931;-82
2021/03/09 07:39:08;;;;;;;;;;;17.00;52.90;;;;;;4926612;28;19934;-83
2021/03/09 07:41:35;;;;;;;;;;;16.90;53.00;;;;;;4933379;28;19934;-85
2021/03/09 07:44:02;;;;;;;;;;;16.90;53.60;;;;;;4933762;28;20377;-92
2021/03/09 07:46:29;;;;;;;;;;;17.00;53.60;;;;;;4926666;29;20694;-88
2021/03/09 07:48:55;;;;;;;;;;;17.60;53.40;;;;;;4934268;29;19907;-89
2021/03/09 07:51:21;;;;;;;;;;;18.20;52.20;;;;;;4937522;29;20289;-89
2021/03/09 07:54:06;;;;;;;;;;;18.60;51.20;;;;;;4934966;28;19946;-93
2021/03/09 07:56:31;;;;;;;;;;;18.80;50.50;;;;;;4941061;28;20297;-89
2021/03/09 07:59:07;;;;;;;;;;;19.10;50.00;;;;;;4929317;29;19919;-86
2021/03/09 08:01:46;;;;;;;;;;;19.30;49.70;;;;;;4936139;28;19923;-84
2021/03/09 08:04:12;;;;;;;;;;;19.40;49.40;;;;;;4944330;28;20025;-87
2021/03/09 08:06:42;;;;;;;;;;;19.60;49.00;;;;;;4933471;28;19965;-85
2021/03/09 08:09:27;;;;;;;;;;;19.70;48.70;;;;;;4931516;28;19958;-86
2021/03/09 08:11:53;;;;;;;;;;;19.90;48.60;;;;;;4928714;28;20481;-88
2021/03/09 08:14:19;;;;;;;;;;;19.90;48.30;;;;;;4935177;28;19933;-85
2021/03/09 08:16:47;;;;;;;;;;;20.00;48.20;;;;;;4928088;28;19927;-85
2021/03/09 08:19:37;;;;;;;;;;;20.20;47.90;;;;;;4933343;28;19992;-84
2021/03/09 08:22:04;;;;;;;;;;;20.30;47.70;;;;;;4925897;28;20439;-85
2021/03/09 08:24:39;;;;;;;;;;;20.30;47.40;;;;;;4934516;28;20308;-84
2021/03/09 08:27:25;;;;;;;;;;;20.30;48.10;;;;;;4935412;28;20010;-92
2021/03/09 08:29:52;;;;;;;;;;;20.50;47.60;;;;;;4938427;29;21294;-84
2021/03/09 08:32:25;;;;;;;;;;;20.50;47.60;;;;;;4928047;28;19935;-84
2021/03/09 08:35:11;;;;;;;;;;;20.70;47.20;;;;;;4933158;28;21665;-85
2021/03/09 08:37:41;;;;;;;;;;;20.70;47.10;;;;;;4921649;28;20326;-85
2021/03/09 08:40:18;;;;;;;;;;;20.80;46.90;;;;;;4931691;28;20537;-83
2021/03/09 08:43:02;;;;;;;;;;;20.80;46.70;;;;;;4929073;28;20387;-82
2021/03/09 08:45:35;;;;;;;;;;;20.90;46.50;;;;;;4930233;28;20949;-85
2021/03/09 08:48:02;;;;;;;;;;;21.00;46.30;;;;;;4926218;28;19931;-90
2021/03/09 08:50:47;;;;;;;;;;;21.10;47.10;;;;;;4931139;28;19934;-87
2021/03/09 08:53:33;;;;;;;;;;;21.20;46.40;;;;;;4920003;28;21309;-85
2021/03/09 08:56:01;;;;;;;;;;;21.30;46.10;;;;;;4937293;29;20014;-85
2021/03/09 08:58:28;;;;;;;;;;;21.30;45.90;;;;;;4931917;28;19958;-90
2021/03/09 09:00:55;;;;;;;;;;;21.40;46.50;;;;;;4934645;29;20330;-87
2021/03/09 09:03:32;;;;;;;;;;;21.90;46.00;;;;;;4927416;29;20392;-88
2021/03/09 09:05:58;;;;;;;;;;;22.30;45.60;;;;;;4951333;28;21215;-86
2021/03/09 09:08:24;;;;;;;;;;;22.60;45.00;;;;;;4929571;28;19945;-86
2021/03/09 09:10:51;;;;;;;;;;;22.90;44.90;;;;;;4937202;29;19978;-91
2021/03/09 09:13:34;;;;;;;;;;;23.10;44.50;;;;;;4932480;28;19930;-88
2021/03/09 09:16:36;;;;;;;;;;;23.30;44.30;;;;;;4927437;28;21162;-93
2021/03/09 09:19:10;;;;;;;;;;;23.40;44.10;;;;;;4881591;29;20025;-86
2021/03/09 09:21:53;;;;;;;;;;;23.70;43.90;;;;;;4905209;28;19927;-86
2021/03/09 09:24:29;;;;;;;;;;;23.90;43.70;;;;;;4913401;28;20466;-87
2021/03/09 09:26:57;;;;;;;;;;;24.00;43.30;;;;;;4933972;28;20064;-87
2021/03/09 09:29:26;;;;;;;;;;;24.10;43.10;;;;;;4925641;28;19934;-87
2021/03/09 09:32:09;;;;;;;;;;;24.30;42.80;;;;;;4934469;29;19927;-86
2021/03/09 09:34:44;;;;;;;;;;;24.40;42.60;;;;;;4874775;28;20016;-89
2021/03/09 09:37:15;;;;;;;;;;;24.50;42.60;;;;;;4918196;28;19935;-86
2021/03/09 09:39:47;;;;;;;;;;;24.70;42.20;;;;;;4928691;28;19930;-86
2021/03/09 09:42:25;;;;;;;;;;;24.70;42.00;;;;;;4921730;28;20336;-89
2021/03/09 09:45:03;;;;;;;;;;;24.80;42.00;;;;;;4902446;28;19935;-85
2021/03/09 09:47:47;;;;;;;;;;;24.90;42.20;;;;;;4921088;28;19954;-86
2021/03/09 09:50:23;;;;;;;;;;;24.90;42.00;;;;;;4899995;28;20029;-84
2021/03/09 09:52:51;;;;;;;;;;;25.00;42.40;;;;;;4945507;28;19982;-86
2021/03/09 09:55:22;;;;;;;;;;;25.10;41.50;;;;;;4926651;28;19990;-87
2021/03/09 09:57:49;;;;;;;;;;;25.10;41.80;;;;;;4935909;28;20009;-89
2021/03/09 10:00:16;;;;;;;;;;;25.20;41.90;;;;;;4930155;28;19925;-88
2021/03/09 10:02:42;;;;;;;;;;;25.20;41.40;;;;;;4933279;28;20021;-89
2021/03/09 10:05:29;;;;;;;;;;;25.30;41.60;;;;;;4932095;28;19978;-89
2021/03/09 10:07:58;;;;;;;;;;;25.40;41.50;;;;;;4933696;28;19927;-93
2021/03/09 10:10:25;;;;;;;;;;;25.60;41.20;;;;;;4926654;29;19978;-85
2021/03/09 10:12:51;;;;;;;;;;;25.70;41.10;;;;;;4930350;29;20354;-85
2021/03/09 10:15:19;;;;;;;;;;;25.70;40.80;;;;;;4924802;28;20018;-84
2021/03/09 10:17:45;;;;;;;;;;;25.90;40.50;;;;;;4913909;29;20009;-85
2021/03/09 10:20:21;;;;;;;;;;;26.10;40.30;;;;;;4920858;28;19935;-85
2021/03/09 10:22:48;;;;;;;;;;;26.00;40.10;;;;;;4912322;28;20407;-83
2021/03/09 10:25:15;;;;;;;;;;;26.10;40.10;;;;;;4925410;28;20049;-88
2021/03/09 10:27:41;;;;;;;;;;;26.20;40.10;;;;;;4931119;29;19963;-82
2021/03/09 10:30:09;;;;;;;;;;;26.20;40.10;;;;;;4922374;28;20038;-82
2021/03/09 10:35:12;;;;;;;;;;;26.30;40.30;;;;;;4914870;29;19935;-92
2021/03/09 10:37:40;;;;;;;;;;;26.30;40.30;;;;;;4915310;29;20354;-95
2021/03/09 10:40:20;;;;;;;;;;;26.30;40.30;;;;;;4936449;28;19950;-86
2021/03/09 10:42:47;;;;;;;;;;;26.40;40.20;;;;;;4922101;29;19990;-87
2021/03/09 10:45:21;;;;;;;;;;;26.40;40.00;;;;;;4946777;29;19950;-93
2021/03/09 10:47:53;;;;;;;;;;;26.50;39.90;;;;;;4920099;29;19934;-88
2021/03/09 10:50:22;;;;;;;;;;;26.60;40.00;;;;;;4947003;28;19994;-87
2021/03/09 10:52:49;;;;;;;;;;;26.60;39.90;;;;;;4911166;29;19935;-90
2021/03/09 10:55:18;;;;;;;;;;;26.60;40.00;;;;;;4914815;29;19931;-88
2021/03/09 10:57:44;;;;;;;;;;;26.80;39.70;;;;;;4922705;29;20473;-86
2021/03/09 11:00:12;;;;;;;;;;;26.80;39.60;;;;;;4913476;29;19969;-83
2021/03/09 11:02:38;;;;;;;;;;;26.90;39.60;;;;;;4908266;29;19958;-85
2021/03/09 11:05:05;;;;;;;;;;;26.90;39.40;;;;;;4922165;28;19931;-85
2021/03/09 11:07:31;;;;;;;;;;;27.00;39.40;;;;;;4908039;29;19926;-86
2021/03/09 11:09:58;;;;;;;;;;;27.00;39.30;;;;;;4914259;29;19963;-91
2021/03/09 11:12:25;;;;;;;;;;;27.00;39.60;;;;;;4916727;29;19941;-89
2021/03/09 11:14:51;;;;;;;;;;;25.60;36.70;;;;;;4915312;29;19937;-89
2021/03/09 11:17:18;;;;;;;;;;;24.70;39.10;;;;;;4916398;29;19938;-89
2021/03/09 11:19:45;;;;;;;;;;;24.10;40.50;;;;;;4947759;29;19934;-88
2021/03/09 11:22:12;;;;;;;;;;;23.70;41.30;;;;;;4914247;29;19915;-87
2021/03/09 11:24:38;;;;;;;;;;;23.40;41.90;;;;;;4909662;29;20013;-89
2021/03/09 11:27:05;;;;;;;;;;;23.20;42.20;;;;;;4912624;28;19927;-87
2021/03/09 11:29:41;;;;;;;;;;;23.10;42.50;;;;;;4914460;29;20519;-88
2021/03/09 11:32:09;;;;;;;;;;;23.00;42.80;;;;;;4911935;29;19938;-88
2021/03/09 11:34:35;;;;;;;;;;;22.80;43.10;;;;;;4903754;29;20387;-87
2021/03/09 11:37:02;;;;;;;;;;;22.70;43.20;;;;;;4915866;29;19942;-88
2021/03/09 11:39:28;;;;;;;;;;;22.60;43.60;;;;;;4905678;29;19934;-87
2021/03/09 11:41:55;;;;;;;;;;;22.50;43.90;;;;;;4915159;29;19927;-89
2021/03/09 11:44:21;;;;;;;;;;;22.40;43.90;;;;;;4907175;29;19935;-89
2021/03/09 11:46:48;;;;;;;;;;;22.30;44.00;;;;;;4873854;29;19935;-89
2021/03/09 11:49:15;;;;;;;;;;;22.20;44.20;;;;;;4890048;29;19928;-88
2021/03/09 11:51:42;;;;;;;;;;;22.20;46.30;;;;;;4919766;29;19927;-91
2021/03/09 11:54:08;;;;;;;;;;;22.40;45.50;;;;;;4919081;29;21176;-89
2021/03/09 11:56:35;;;;;;;;;;;22.50;45.30;;;;;;4925012;29;20420;-90
2021/03/09 11:59:01;;;;;;;;;;;22.70;45.40;;;;;;4903312;29;19935;-87
2021/03/09 12:01:27;;;;;;;;;;;22.70;45.60;;;;;;4921647;29;19931;-90
2021/03/09 12:03:54;;;;;;;;;;;22.70;45.30;;;;;;4901158;29;19931;-86
2021/03/09 12:06:21;;;;;;;;;;;22.80;45.20;;;;;;4918032;29;19927;-94
2021/03/09 12:08:48;;;;;;;;;;;22.70;45.50;;;;;;4921993;29;20378;-88
2021/03/09 12:11:15;;;;;;;;;;;22.80;45.90;;;;;;4909520;29;19935;-86
2021/03/09 12:13:41;;;;;;;;;;;22.80;45.60;;;;;;4912866;29;19942;-92
2021/03/09 12:16:08;;;;;;;;;;;22.80;45.60;;;;;;4910147;29;19990;-92
2021/03/09 12:18:35;;;;;;;;;;;22.80;46.20;;;;;;4904361;29;20986;-85
2021/03/09 12:21:02;;;;;;;;;;;22.80;46.40;;;;;;4908029;29;20191;-82
2021/03/09 12:23:28;;;;;;;;;;;22.80;46.90;;;;;;4912680;29;20283;-84
2021/03/09 12:26:06;;;;;;;;;;;22.80;46.50;;;;;;4906319;29;19955;-85
2021/03/09 12:28:32;;;;;;;;;;;22.80;46.90;;;;;;4909324;29;19981;-87
2021/03/09 12:30:59;;;;;;;;;;;22.80;45.90;;;;;;4897713;29;19941;-87
2021/03/09 12:33:28;;;;;;;;;;;22.80;47.10;;;;;;4914655;29;19927;-88
2021/03/09 12:35:55;;;;;;;;;;;22.80;46.10;;;;;;4905581;29;20319;-85
2021/03/09 12:38:21;;;;;;;;;;;22.80;46.30;;;;;;4917899;29;20306;-84
2021/03/09 12:40:48;;;;;;;;;;;22.80;47.00;;;;;;4932678;28;19935;-91
2021/03/09 12:43:15;;;;;;;;;;;22.80;46.70;;;;;;4920516;29;19934;-90
2021/03/09 12:45:41;;;;;;;;;;;22.90;46.10;;;;;;4905275;29;19930;-88
2021/03/09 12:48:08;;;;;;;;;;;22.80;46.40;;;;;;4922467;29;19935;-87
2021/03/09 12:50:37;;;;;;;;;;;22.80;46.20;;;;;;4934468;28;19923;-86
2021/03/09 12:53:04;;;;;;;;;;;22.80;46.30;;;;;;4922770;29;19927;-88
2021/03/09 12:55:33;;;;;;;;;;;22.80;46.70;;;;;;4918319;29;20013;-91
2021/03/09 12:58:00;;;;;;;;;;;22.80;46.40;;;;;;4932876;29;19955;-92
2021/03/09 13:00:27;;;;;;;;;;;22.80;46.60;;;;;;4918433;29;20401;-91
2021/03/09 13:02:55;;;;;;;;;;;22.90;47.00;;;;;;4930923;29;19986;-91
2021/03/09 13:05:21;;;;;;;;;;;22.80;47.00;;;;;;4919539;29;19939;-91
2021/03/09 13:07:48;;;;;;;;;;;22.80;46.40;;;;;;4914920;29;19927;-92
2021/03/09 13:10:29;;;;;;;;;;;22.80;46.20;;;;;;4922466;28;19933;-91
2021/03/09 13:12:56;;;;;;;;;;;22.80;46.60;;;;;;4945223;29;20416;-93
2021/03/09 13:15:26;;;;;;;;;;;22.80;47.00;;;;;;4921331;29;20294;-93
2021/03/09 13:17:53;;;;;;;;;;;22.80;46.90;;;;;;4930490;29;19926;-91
2021/03/09 13:20:20;;;;;;;;;;;22.80;46.40;;;;;;4919483;29;19926;-90
2021/03/09 13:22:47;;;;;;;;;;;22.80;46.40;;;;;;4925024;29;19934;-87
2021/03/09 13:25:14;;;;;;;;;;;22.80;46.80;;;;;;4929907;29;20387;-89
2021/03/09 13:27:41;;;;;;;;;;;22.80;46.90;;;;;;4914772;29;19958;-91
2021/03/09 13:30:14;;;;;;;;;;;22.80;46.70;;;;;;4907210;29;19939;-89
2021/03/09 13:32:42;;;;;;;;;;;22.80;46.50;;;;;;4924542;29;20029;-88
2021/03/09 13:35:09;;;;;;;;;;;22.80;46.20;;;;;;4915176;29;19935;-92
2021/03/09 13:37:35;;;;;;;;;;;22.80;46.20;;;;;;4910838;28;19926;-88
2021/03/09 13:40:03;;;;;;;;;;;22.50;44.50;;;;;;4943756;28;19934;-89
2021/03/09 13:42:31;;;;;;;;;;;22.20;44.00;;;;;;4925936;28;19935;-87
2021/03/09 13:44:58;;;;;;;;;;;22.10;44.30;;;;;;4927195;29;20366;-89
2021/03/09 13:47:24;;;;;;;;;;;22.00;44.70;;;;;;4909604;29;19945;-89
2021/03/09 13:49:51;;;;;;;;;;;21.90;44.80;;;;;;4943409;28;19958;-88
2021/03/09 13:52:17;;;;;;;;;;;21.80;44.90;;;;;;4915047;29;19935;-88
2021/03/09 13:54:44;;;;;;;;;;;21.70;45.00;;;;;;4912007;28;20492;-90
2021/03/09 13:57:14;;;;;;;;;;;21.70;45.00;;;;;;4928673;29;20396;-84
2021/03/09 13:59:40;;;;;;;;;;;21.70;46.40;;;;;;4923408;28;19935;-84
2021/03/09 14:02:07;;;;;;;;;;;21.70;46.30;;;;;;4933866;29;19973;-84
2021/03/09 14:04:33;;;;;;;;;;;21.80;46.70;;;;;;4920086;29;19935;-87
2021/03/09 14:07:00;;;;;;;;;;;21.90;46.70;;;;;;4927445;29;19930;-86
2021/03/09 14:09:26;;;;;;;;;;;22.00;46.60;;;;;;4916588;29;19968;-85
2021/03/09 14:11:56;;;;;;;;;;;22.00;46.90;;;;;;4937271;29;19934;-90
2021/03/09 14:14:33;;;;;;;;;;;22.10;47.30;;;;;;4914660;29;19935;-91
2021/03/09 14:17:34;;;;;;;;;;;22.20;47.00;;;;;;4878117;29;19930;-87
2021/03/09 14:20:13;;;;;;;;;;;22.20;47.40;;;;;;4918444;29;19973;-86
2021/03/09 14:22:44;;;;;;;;;;;22.20;46.50;;;;;;4927033;29;19927;-87
2021/03/09 14:28:16;;;;;;;;;;;22.20;47.10;;;;;;4899157;29;20503;-87
2021/03/09 14:30:42;;;;;;;;;;;22.30;47.00;;;;;;4905216;29;20431;-85
2021/03/09 14:33:14;;;;;;;;;;;22.30;46.80;;;;;;4904478;29;19931;-84